Flight Track Log - Related Links

Times and Time Zones

All times are in EDT time to prevent confusion due to time zone crossing. See the N2102E flight status page for this flight to view local times or setup timezone preferences in your user account.

Time Position Orientation Groundspeed Altitude Reporting Facility
EDT Latitude Longitude Course Direction KTS MPH feet Rate Location/Type
Sat 04:52:04 PM 34.9933 -81.0444 118° Southeast 62 71 1,200  Level Atlanta Center
Sat 04:53:18 PM 34.9800 -81.0144 118° Southeast 85 98 1,800 537 Climbing Atlanta Center
Sat 04:54:18 PM 34.9669 -80.9922 126° Southeast 83 96 2,400 492 Climbing Atlanta Center
Sat 04:55:20 PM 34.9683 -80.9669 86° East 72 83 2,800 341 Climbing Atlanta Center
Sat 04:56:21 PM 34.9739 -80.9386 77° East 90 104 3,100 141 Climbing Atlanta Center
Sat 04:57:28 PM 34.9814 -80.9006 76° East 108 124 3,100 -47 Level Atlanta Center
Sat 04:58:29 PM 34.9886 -80.8622 77° East 116 133 3,000 -98 Descending Atlanta Center
Sat 04:59:30 PM 34.9897 -80.8214 88° East 107 123 2,900  Descending Atlanta Center
Sat 05:00:31 PM 34.9931 -80.7883 83° East 104 120 3,000 51 Climbing Atlanta Center
Sat 05:01:27 PM 35.0006 -80.7553 75° East 105 121 3,000 51 Level Atlanta Center
Sat 05:02:28 PM 35.0036 -80.7219 84° East 105 121 3,100  Climbing Atlanta Center
Sat 05:03:23 PM 35.0111 -80.6889 75° East 106 122 3,000 -98 Descending Atlanta Center
Sat 05:04:30 PM 35.0164 -80.6506 80° East 107 123 2,900 -49 Descending Atlanta Center
Sat 05:05:25 PM 35.0239 -80.6197 73° East 105 121 2,900 207 Level Atlanta Center
Sat 05:06:26 PM 35.0314 -80.5892 73° East 96 110 3,300 393 Climbing Atlanta Center
Sat 05:07:27 PM 35.0347 -80.5611 82° East 81 93 3,700 403 Climbing Atlanta Center
Sat 05:08:40 PM 35.0400 -80.5253 80° East 81 93 4,200 393 Climbing Atlanta Center
Sat 05:09:29 PM 35.0394 -80.5050 92° East 85 98 4,500 382 Climbing Atlanta Center
Sat 05:10:30 PM 35.0489 -80.4742 69° East 83 96 4,900 344 Climbing Atlanta Center
Sat 05:11:31 PM 35.0567 -80.4511 68° East 80 92 5,200 344 Climbing Atlanta Center
Sat 05:12:32 PM 35.0661 -80.4228 68° East 83 96 5,600 393 Climbing Atlanta Center
Sat 05:13:33 PM 35.0781 -80.3994 58° Northeast 84 97 6,000 310 Climbing Atlanta Center
Sat 05:14:28 PM 35.0900 -80.3811 51° Northeast 83 96 6,200 295 Climbing Atlanta Center
Sat 05:15:35 PM 35.1058 -80.3525 56° Northeast 81 93 6,600 313 Climbing Atlanta Center
Sat 05:16:23 PM 35.1136 -80.3342 63° Northeast 82 94 6,800 236 Climbing Atlanta Center
Sat 05:17:42 PM 35.1231 -80.3008 71° East 84 97 7,100 134 Climbing Atlanta Center
Sat 05:18:37 PM 35.1283 -80.2700 78° East 91 105 7,100 -89 Level Atlanta Center
Sat 05:20:00 PM 35.1318 -80.2273 84° East  Level FlightAware Approximate
Sat 05:27:00 PM 35.1491 -80.0114 84° East  Level FlightAware Approximate
Sat 05:28:00 PM 35.1525 -79.9796 82° East  Level FlightAware Approximate
Sat 05:29:00 PM 35.1562 -79.9489 82° East  Level FlightAware Approximate
Sat 05:30:00 PM 35.1599 -79.9183 82° East  Level FlightAware Approximate
Sat 05:31:00 PM 35.1636 -79.8876 82° East  Level FlightAware Approximate
Sat 05:32:00 PM 35.1673 -79.8569 82° East  Level FlightAware Approximate
Sat 05:33:00 PM 35.1710 -79.8262 82° East  Level FlightAware Approximate
Sat 05:34:00 PM 35.1752 -79.7919 82° East  Level FlightAware Approximate
Sat 05:35:00 PM 35.1793 -79.7576 82° East  Level FlightAware Approximate
Sat 05:36:00 PM 35.1834 -79.7233 82° East  Level FlightAware Approximate
Sat 05:37:00 PM 35.1875 -79.6889 82° East  Level FlightAware Approximate
Sat 05:38:00 PM 35.1916 -79.6546 82° East  Level FlightAware Approximate
Sat 05:39:00 PM 35.1956 -79.6203 82° East  Level FlightAware Approximate
Sat 05:40:00 PM 35.1997 -79.5859 82° East  Level FlightAware Approximate
Sat 05:40:14 PM 35.3475 -79.5619 31° Northeast 105 121 5,100  Level Washington Center
Sat 05:40:56 PM 35.3606 -79.5422 51° Northeast 105 121 5,100 -58 Level Washington Center
Sat 05:41:00 PM 35.2225 -79.5669 31° Northeast  Level FlightAware Approximate
Sat 05:41:57 PM 35.3803 -79.5125 51° Northeast 107 123 5,000  Level Washington Center
Sat 05:42:00 PM 35.2469 -79.5491 31° Northeast  Level FlightAware Approximate
Sat 05:42:57 PM 35.4061 -79.4936 31° Northeast 113 130 4,900  Level Washington Center
Sat 05:43:00 PM 35.2712 -79.5312 31° Northeast  Level FlightAware Approximate
Sat 05:43:57 PM 35.4278 -79.4692 43° Northeast 110 127 4,900  Level Washington Center
Sat 05:44:00 PM 35.2955 -79.5134 31° Northeast  Level FlightAware Approximate
Sat 05:44:58 PM 35.4433 -79.4342 61° Northeast 106 122 5,000  Level Washington Center
Sat 05:45:00 PM 35.3199 -79.4956 31° Northeast  Level FlightAware Approximate
Sat 05:45:59 PM 35.4611 -79.4044 54° Northeast 105 121 5,000  Level Washington Center
Sat 05:47:00 PM 35.4744 -79.3719 63° Northeast 110 127 4,900 -295 Descending Washington Center
Sat 05:48:01 PM 35.4944 -79.3397 53° Northeast 117 135 4,400 -541 Descending Washington Center
Sat 05:49:02 PM 35.5103 -79.3022 63° Northeast 123 142 3,800 -541 Descending Washington Center
Sat 05:50:03 PM 35.5278 -79.2722 54° Northeast 114 131 3,300 -446 Descending Washington Center
Sat 05:51:03 PM 35.5456 -79.2375 58° Northeast 109 125 2,900 -248 Descending Washington Center
Sat 05:52:04 PM 35.5592 -79.2047 63° Northeast 106 122 2,800 -49 Descending Washington Center
Sat 05:53:05 PM 35.5744 -79.1775 55° Northeast 97 112 2,800 -159 Level Washington Center
Sat 05:53:57 PM 35.5878 -79.1525 57° Northeast 99 114 2,500 -372 Descending Washington Center
Sat 05:54:58 PM 35.6094 -79.1228 48° Northeast 111 128 2,100 -298 Descending Washington Center
Sat 05:55:58 PM 35.6292 -79.0931 51° Northeast 112 129 1,900 -149 Descending Washington Center
Sat 05:56:59 PM 35.6467 -79.0656 52° Northeast 106 122 1,800 49 Descending Washington Center
Sat 05:58:00 PM 35.6681 -79.0436 40° Northeast 100 115 2,000 98 Climbing Washington Center
Sat 05:59:01 PM 35.6878 -79.0164 48° Northeast 103 119 2,000 -49 Level Washington Center
Sat 06:00:02 PM 35.7094 -78.9892 46° Northeast 106 122 1,900 -50 Descending Washington Center
Sat 06:01:02 PM 35.7331 -78.9644 40° Northeast 108 124 1,900 -22 Level Washington Center
Sat 06:03:00 PM 35.7812 -78.9230 49° Northeast  Level FlightAware Approximate
Sat 06:04:29 PM 35.8022 -78.8753 49° Northeast 107 123 1,800  Level Washington Center
Sat 06:05:30 PM 35.8194 -78.8528 47° Northeast 97 112 1,600 -344 Descending Washington Center
Sat 06:06:31 PM 35.8367 -78.8331 43° Northeast 80 92 1,100 -504 Descending Washington Center
Sat 06:07:29 PM 35.8542 -78.8108 46° Northeast 83 96 600 -517 Descending Washington Center

Login

Don't have an account? Register now (free) for customized features, flight alerts, and more!